sensor_id;sensor_type;location;lat;lon;timestamp;P1;durP1;ratioP1;P2;durP2;ratioP2
11431;SDS011;5772;50.940;6.782;2023-02-22T00:01:19;51.57;;;46.07;;
11431;SDS011;5772;50.940;6.782;2023-02-22T00:03:47;52.63;;;47.90;;
11431;SDS011;5772;50.940;6.782;2023-02-22T00:06:15;51.83;;;46.03;;
11431;SDS011;5772;50.940;6.782;2023-02-22T00:08:41;54.63;;;47.87;;
11431;SDS011;5772;50.940;6.782;2023-02-22T00:11:07;54.77;;;45.53;;
11431;SDS011;5772;50.940;6.782;2023-02-22T00:13:34;50.43;;;45.60;;
11431;SDS011;5772;50.940;6.782;2023-02-22T00:16:01;55.93;;;43.50;;
11431;SDS011;5772;50.940;6.782;2023-02-22T00:18:27;48.27;;;42.53;;
11431;SDS011;5772;50.940;6.782;2023-02-22T00:20:52;51.33;;;43.73;;
11431;SDS011;5772;50.940;6.782;2023-02-22T00:23:19;51.90;;;42.13;;
11431;SDS011;5772;50.940;6.782;2023-02-22T00:25:45;58.17;;;41.97;;
11431;SDS011;5772;50.940;6.782;2023-02-22T00:28:11;62.17;;;48.13;;
11431;SDS011;5772;50.940;6.782;2023-02-22T00:30:37;57.63;;;47.43;;
11431;SDS011;5772;50.940;6.782;2023-02-22T00:33:04;52.53;;;47.10;;
11431;SDS011;5772;50.940;6.782;2023-02-22T00:35:29;63.43;;;48.20;;
11431;SDS011;5772;50.940;6.782;2023-02-22T00:37:55;53.07;;;42.43;;
11431;SDS011;5772;50.940;6.782;2023-02-22T00:40:23;60.23;;;47.57;;
11431;SDS011;5772;50.940;6.782;2023-02-22T00:42:50;67.50;;;47.33;;
11431;SDS011;5772;50.940;6.782;2023-02-22T00:45:16;60.87;;;47.43;;
11431;SDS011;5772;50.940;6.782;2023-02-22T00:47:44;54.40;;;48.63;;
11431;SDS011;5772;50.940;6.782;2023-02-22T00:50:11;63.93;;;45.93;;
11431;SDS011;5772;50.940;6.782;2023-02-22T00:52:37;61.37;;;47.23;;
11431;SDS011;5772;50.940;6.782;2023-02-22T00:55:03;52.23;;;43.23;;
11431;SDS011;5772;50.940;6.782;2023-02-22T00:57:29;54.53;;;43.07;;
11431;SDS011;5772;50.940;6.782;2023-02-22T00:59:54;50.47;;;45.23;;
11431;SDS011;5772;50.940;6.782;2023-02-22T01:02:19;50.77;;;45.63;;
11431;SDS011;5772;50.940;6.782;2023-02-22T01:04:45;58.10;;;46.73;;
11431;SDS011;5772;50.940;6.782;2023-02-22T01:07:11;60.47;;;46.93;;
11431;SDS011;5772;50.940;6.782;2023-02-22T01:09:37;48.97;;;43.80;;
11431;SDS011;5772;50.940;6.782;2023-02-22T01:12:02;63.93;;;45.53;;
11431;SDS011;5772;50.940;6.782;2023-02-22T01:14:28;52.20;;;47.00;;
11431;SDS011;5772;50.940;6.782;2023-02-22T01:16:54;58.00;;;46.53;;
11431;SDS011;5772;50.940;6.782;2023-02-22T01:19:20;59.87;;;49.67;;
11431;SDS011;5772;50.940;6.782;2023-02-22T01:21:46;68.30;;;49.40;;
11431;SDS011;5772;50.940;6.782;2023-02-22T01:24:12;51.60;;;46.67;;
11431;SDS011;5772;50.940;6.782;2023-02-22T01:26:38;53.83;;;48.83;;
11431;SDS011;5772;50.940;6.782;2023-02-22T01:29:03;60.83;;;49.20;;
11431;SDS011;5772;50.940;6.782;2023-02-22T01:31:29;54.33;;;46.00;;
11431;SDS011;5772;50.940;6.782;2023-02-22T01:33:54;75.93;;;54.60;;
11431;SDS011;5772;50.940;6.782;2023-02-22T01:36:19;70.73;;;49.50;;
11431;SDS011;5772;50.940;6.782;2023-02-22T01:38:45;65.03;;;48.50;;
11431;SDS011;5772;50.940;6.782;2023-02-22T01:41:12;60.13;;;49.40;;
11431;SDS011;5772;50.940;6.782;2023-02-22T01:43:37;64.87;;;50.13;;
11431;SDS011;5772;50.940;6.782;2023-02-22T01:46:03;72.47;;;50.07;;
11431;SDS011;5772;50.940;6.782;2023-02-22T01:48:31;67.17;;;51.80;;
11431;SDS011;5772;50.940;6.782;2023-02-22T01:51:01;60.43;;;53.50;;
11431;SDS011;5772;50.940;6.782;2023-02-22T01:53:29;68.00;;;51.93;;
11431;SDS011;5772;50.940;6.782;2023-02-22T01:55:58;64.73;;;54.17;;
11431;SDS011;5772;50.940;6.782;2023-02-22T01:58:25;69.53;;;52.67;;
11431;SDS011;5772;50.940;6.782;2023-02-22T02:00:52;67.50;;;52.20;;
11431;SDS011;5772;50.940;6.782;2023-02-22T02:03:18;59.80;;;52.10;;
11431;SDS011;5772;50.940;6.782;2023-02-22T02:05:45;63.80;;;49.60;;
11431;SDS011;5772;50.940;6.782;2023-02-22T02:08:13;58.67;;;50.50;;
11431;SDS011;5772;50.940;6.782;2023-02-22T02:10:43;66.73;;;51.00;;
11431;SDS011;5772;50.940;6.782;2023-02-22T02:13:09;66.87;;;52.20;;
11431;SDS011;5772;50.940;6.782;2023-02-22T02:15:35;57.17;;;49.10;;
11431;SDS011;5772;50.940;6.782;2023-02-22T02:18:02;68.40;;;50.30;;
11431;SDS011;5772;50.940;6.782;2023-02-22T02:20:30;70.83;;;50.47;;
11431;SDS011;5772;50.940;6.782;2023-02-22T02:22:59;54.27;;;48.60;;
11431;SDS011;5772;50.940;6.782;2023-02-22T02:25:46;76.37;;;52.17;;
11431;SDS011;5772;50.940;6.782;2023-02-22T02:28:26;70.03;;;51.17;;
11431;SDS011;5772;50.940;6.782;2023-02-22T02:34:01;72.03;;;49.10;;
11431;SDS011;5772;50.940;6.782;2023-02-22T02:36:29;64.60;;;50.60;;
11431;SDS011;5772;50.940;6.782;2023-02-22T02:38:56;76.93;;;50.53;;
11431;SDS011;5772;50.940;6.782;2023-02-22T02:41:26;55.20;;;49.47;;
11431;SDS011;5772;50.940;6.782;2023-02-22T02:43:54;60.67;;;47.70;;
11431;SDS011;5772;50.940;6.782;2023-02-22T02:46:24;55.40;;;49.50;;
11431;SDS011;5772;50.940;6.782;2023-02-22T02:48:54;64.53;;;50.20;;
11431;SDS011;5772;50.940;6.782;2023-02-22T02:51:23;55.80;;;48.90;;
11431;SDS011;5772;50.940;6.782;2023-02-22T02:53:52;55.17;;;46.53;;
11431;SDS011;5772;50.940;6.782;2023-02-22T02:56:19;53.90;;;47.57;;
11431;SDS011;5772;50.940;6.782;2023-02-22T02:58:46;52.87;;;46.03;;
11431;SDS011;5772;50.940;6.782;2023-02-22T03:01:12;54.87;;;48.93;;
11431;SDS011;5772;50.940;6.782;2023-02-22T03:03:46;50.40;;;44.67;;
11431;SDS011;5772;50.940;6.782;2023-02-22T03:06:24;48.50;;;41.30;;
11431;SDS011;5772;50.940;6.782;2023-02-22T03:09:16;62.07;;;44.87;;
11431;SDS011;5772;50.940;6.782;2023-02-22T03:11:52;60.00;;;46.90;;
11431;SDS011;5772;50.940;6.782;2023-02-22T03:14:24;51.97;;;46.73;;
11431;SDS011;5772;50.940;6.782;2023-02-22T03:16:55;58.00;;;47.17;;
11431;SDS011;5772;50.940;6.782;2023-02-22T03:19:25;64.63;;;46.00;;
11431;SDS011;5772;50.940;6.782;2023-02-22T03:21:54;64.60;;;48.00;;
11431;SDS011;5772;50.940;6.782;2023-02-22T03:24:23;55.00;;;48.50;;
11431;SDS011;5772;50.940;6.782;2023-02-22T03:26:52;57.90;;;51.33;;
11431;SDS011;5772;50.940;6.782;2023-02-22T03:29:19;58.13;;;51.80;;
11431;SDS011;5772;50.940;6.782;2023-02-22T03:31:47;56.73;;;50.63;;
11431;SDS011;5772;50.940;6.782;2023-02-22T03:34:16;55.60;;;50.87;;
11431;SDS011;5772;50.940;6.782;2023-02-22T03:36:44;56.67;;;50.93;;
11431;SDS011;5772;50.940;6.782;2023-02-22T03:39:13;58.40;;;52.60;;
11431;SDS011;5772;50.940;6.782;2023-02-22T03:41:42;50.87;;;46.23;;
11431;SDS011;5772;50.940;6.782;2023-02-22T03:44:10;50.10;;;45.27;;
11431;SDS011;5772;50.940;6.782;2023-02-22T03:46:38;48.67;;;43.63;;
11431;SDS011;5772;50.940;6.782;2023-02-22T03:49:06;47.50;;;42.53;;
11431;SDS011;5772;50.940;6.782;2023-02-22T03:51:34;47.90;;;43.20;;
11431;SDS011;5772;50.940;6.782;2023-02-22T03:54:00;55.60;;;45.63;;
11431;SDS011;5772;50.940;6.782;2023-02-22T03:56:29;50.37;;;45.00;;
11431;SDS011;5772;50.940;6.782;2023-02-22T03:58:56;50.73;;;45.17;;
11431;SDS011;5772;50.940;6.782;2023-02-22T04:01:21;47.27;;;43.30;;
11431;SDS011;5772;50.940;6.782;2023-02-22T04:03:46;51.27;;;45.63;;
11431;SDS011;5772;50.940;6.782;2023-02-22T04:06:12;48.07;;;43.60;;
11431;SDS011;5772;50.940;6.782;2023-02-22T04:08:37;46.13;;;42.33;;
11431;SDS011;5772;50.940;6.782;2023-02-22T04:11:03;49.83;;;45.20;;
11431;SDS011;5772;50.940;6.782;2023-02-22T04:13:30;51.60;;;46.83;;
11431;SDS011;5772;50.940;6.782;2023-02-22T04:15:55;50.87;;;43.03;;
11431;SDS011;5772;50.940;6.782;2023-02-22T04:18:20;51.57;;;42.87;;
11431;SDS011;5772;50.940;6.782;2023-02-22T04:20:46;51.27;;;43.60;;
11431;SDS011;5772;50.940;6.782;2023-02-22T04:23:11;48.27;;;43.67;;
11431;SDS011;5772;50.940;6.782;2023-02-22T04:25:36;51.37;;;45.97;;
11431;SDS011;5772;50.940;6.782;2023-02-22T04:28:02;51.27;;;46.00;;
11431;SDS011;5772;50.940;6.782;2023-02-22T04:30:29;45.67;;;41.93;;
11431;SDS011;5772;50.940;6.782;2023-02-22T04:32:54;49.73;;;44.73;;
11431;SDS011;5772;50.940;6.782;2023-02-22T04:35:20;62.17;;;47.97;;
11431;SDS011;5772;50.940;6.782;2023-02-22T04:37:46;51.10;;;45.30;;
11431;SDS011;5772;50.940;6.782;2023-02-22T04:40:11;44.30;;;40.20;;
11431;SDS011;5772;50.940;6.782;2023-02-22T04:42:37;46.83;;;42.60;;
11431;SDS011;5772;50.940;6.782;2023-02-22T04:45:02;51.73;;;39.97;;
11431;SDS011;5772;50.940;6.782;2023-02-22T04:47:30;45.23;;;41.00;;
11431;SDS011;5772;50.940;6.782;2023-02-22T04:49:56;48.57;;;39.70;;
11431;SDS011;5772;50.940;6.782;2023-02-22T04:52:21;41.80;;;37.80;;
11431;SDS011;5772;50.940;6.782;2023-02-22T04:54:47;43.73;;;38.93;;
11431;SDS011;5772;50.940;6.782;2023-02-22T04:57:12;44.70;;;40.17;;
11431;SDS011;5772;50.940;6.782;2023-02-22T04:59:37;45.97;;;39.03;;
11431;SDS011;5772;50.940;6.782;2023-02-22T05:02:03;45.87;;;41.07;;
11431;SDS011;5772;50.940;6.782;2023-02-22T05:04:29;41.60;;;37.73;;
11431;SDS011;5772;50.940;6.782;2023-02-22T05:06:55;45.90;;;40.30;;
11431;SDS011;5772;50.940;6.782;2023-02-22T05:09:20;62.77;;;38.43;;
11431;SDS011;5772;50.940;6.782;2023-02-22T05:11:46;46.70;;;39.57;;
11431;SDS011;5772;50.940;6.782;2023-02-22T05:14:11;44.20;;;40.03;;
11431;SDS011;5772;50.940;6.782;2023-02-22T05:16:36;49.83;;;42.20;;
11431;SDS011;5772;50.940;6.782;2023-02-22T05:19:02;47.33;;;38.27;;
11431;SDS011;5772;50.940;6.782;2023-02-22T05:21:28;47.53;;;39.43;;
11431;SDS011;5772;50.940;6.782;2023-02-22T05:23:54;44.90;;;36.97;;
11431;SDS011;5772;50.940;6.782;2023-02-22T05:26:19;49.93;;;40.47;;
11431;SDS011;5772;50.940;6.782;2023-02-22T05:28:44;46.80;;;39.77;;
11431;SDS011;5772;50.940;6.782;2023-02-22T05:31:10;41.33;;;37.27;;
11431;SDS011;5772;50.940;6.782;2023-02-22T05:33:35;42.73;;;37.20;;
11431;SDS011;5772;50.940;6.782;2023-02-22T05:36:01;43.03;;;38.43;;
11431;SDS011;5772;50.940;6.782;2023-02-22T05:38:28;45.83;;;40.97;;
11431;SDS011;5772;50.940;6.782;2023-02-22T05:40:53;43.97;;;39.63;;
11431;SDS011;5772;50.940;6.782;2023-02-22T05:43:18;43.07;;;37.50;;
11431;SDS011;5772;50.940;6.782;2023-02-22T05:45:44;45.57;;;38.87;;
11431;SDS011;5772;50.940;6.782;2023-02-22T05:48:09;43.63;;;39.67;;
11431;SDS011;5772;50.940;6.782;2023-02-22T05:50:35;45.07;;;41.27;;
11431;SDS011;5772;50.940;6.782;2023-02-22T05:53:00;44.17;;;39.80;;
11431;SDS011;5772;50.940;6.782;2023-02-22T05:55:27;40.53;;;36.93;;
11431;SDS011;5772;50.940;6.782;2023-02-22T05:57:52;42.93;;;36.50;;
11431;SDS011;5772;50.940;6.782;2023-02-22T06:00:23;42.60;;;37.70;;
11431;SDS011;5772;50.940;6.782;2023-02-22T06:02:54;40.27;;;36.47;;
11431;SDS011;5772;50.940;6.782;2023-02-22T06:05:20;45.33;;;41.37;;
11431;SDS011;5772;50.940;6.782;2023-02-22T06:07:45;41.23;;;36.87;;
11431;SDS011;5772;50.940;6.782;2023-02-22T06:10:10;41.50;;;34.57;;
11431;SDS011;5772;50.940;6.782;2023-02-22T06:12:37;43.23;;;38.77;;
11431;SDS011;5772;50.940;6.782;2023-02-22T06:15:03;48.27;;;41.97;;
11431;SDS011;5772;50.940;6.782;2023-02-22T06:17:28;39.77;;;35.83;;
11431;SDS011;5772;50.940;6.782;2023-02-22T06:19:54;41.60;;;37.60;;
11431;SDS011;5772;50.940;6.782;2023-02-22T06:22:19;42.50;;;38.13;;
11431;SDS011;5772;50.940;6.782;2023-02-22T06:24:44;41.40;;;36.97;;
11431;SDS011;5772;50.940;6.782;2023-02-22T06:27:10;42.90;;;38.37;;
11431;SDS011;5772;50.940;6.782;2023-02-22T06:29:37;44.13;;;39.63;;
11431;SDS011;5772;50.940;6.782;2023-02-22T06:32:02;40.83;;;37.50;;
11431;SDS011;5772;50.940;6.782;2023-02-22T06:34:28;41.67;;;37.90;;
11431;SDS011;5772;50.940;6.782;2023-02-22T06:36:53;46.53;;;41.03;;
11431;SDS011;5772;50.940;6.782;2023-02-22T06:39:18;42.27;;;38.57;;
11431;SDS011;5772;50.940;6.782;2023-02-22T06:41:44;53.13;;;40.37;;
11431;SDS011;5772;50.940;6.782;2023-02-22T06:44:11;47.77;;;41.20;;
11431;SDS011;5772;50.940;6.782;2023-02-22T06:46:38;46.00;;;41.90;;
11431;SDS011;5772;50.940;6.782;2023-02-22T06:49:04;46.50;;;41.93;;
11431;SDS011;5772;50.940;6.782;2023-02-22T06:51:30;46.80;;;42.13;;
11431;SDS011;5772;50.940;6.782;2023-02-22T06:54:00;48.23;;;43.97;;
11431;SDS011;5772;50.940;6.782;2023-02-22T06:56:25;48.93;;;44.10;;
11431;SDS011;5772;50.940;6.782;2023-02-22T06:58:51;49.17;;;44.17;;
11431;SDS011;5772;50.940;6.782;2023-02-22T07:01:19;49.00;;;44.33;;
11431;SDS011;5772;50.940;6.782;2023-02-22T07:03:47;49.53;;;44.93;;
11431;SDS011;5772;50.940;6.782;2023-02-22T07:06:15;46.13;;;41.63;;
11431;SDS011;5772;50.940;6.782;2023-02-22T07:08:41;48.77;;;43.73;;
11431;SDS011;5772;50.940;6.782;2023-02-22T07:11:06;47.20;;;42.57;;
11431;SDS011;5772;50.940;6.782;2023-02-22T07:13:31;51.43;;;46.47;;
11431;SDS011;5772;50.940;6.782;2023-02-22T07:15:57;51.27;;;44.23;;
11431;SDS011;5772;50.940;6.782;2023-02-22T07:18:22;49.33;;;44.33;;
11431;SDS011;5772;50.940;6.782;2023-02-22T07:20:49;46.90;;;42.70;;
11431;SDS011;5772;50.940;6.782;2023-02-22T07:23:15;49.97;;;44.93;;
11431;SDS011;5772;50.940;6.782;2023-02-22T07:25:41;50.63;;;46.27;;
11431;SDS011;5772;50.940;6.782;2023-02-22T07:28:06;47.50;;;43.40;;
11431;SDS011;5772;50.940;6.782;2023-02-22T07:30:32;50.63;;;46.23;;
11431;SDS011;5772;50.940;6.782;2023-02-22T07:32:58;51.37;;;46.57;;
11431;SDS011;5772;50.940;6.782;2023-02-22T07:35:25;50.83;;;46.23;;
11431;SDS011;5772;50.940;6.782;2023-02-22T07:37:53;52.83;;;47.67;;
11431;SDS011;5772;50.940;6.782;2023-02-22T07:40:19;50.57;;;46.60;;
11431;SDS011;5772;50.940;6.782;2023-02-22T07:42:51;50.60;;;46.17;;
11431;SDS011;5772;50.940;6.782;2023-02-22T07:45:17;48.40;;;44.23;;
11431;SDS011;5772;50.940;6.782;2023-02-22T07:47:44;49.27;;;44.30;;
11431;SDS011;5772;50.940;6.782;2023-02-22T07:50:10;47.63;;;43.87;;
11431;SDS011;5772;50.940;6.782;2023-02-22T07:52:36;48.70;;;44.23;;
11431;SDS011;5772;50.940;6.782;2023-02-22T07:55:03;48.07;;;43.43;;
11431;SDS011;5772;50.940;6.782;2023-02-22T07:57:29;50.63;;;46.40;;
11431;SDS011;5772;50.940;6.782;2023-02-22T07:59:55;51.27;;;46.83;;
11431;SDS011;5772;50.940;6.782;2023-02-22T08:02:20;46.87;;;43.00;;
11431;SDS011;5772;50.940;6.782;2023-02-22T08:04:45;47.13;;;42.83;;
11431;SDS011;5772;50.940;6.782;2023-02-22T08:07:11;47.37;;;43.17;;
11431;SDS011;5772;50.940;6.782;2023-02-22T08:09:36;44.30;;;40.70;;
11431;SDS011;5772;50.940;6.782;2023-02-22T08:12:03;46.57;;;42.63;;
11431;SDS011;5772;50.940;6.782;2023-02-22T08:14:29;48.00;;;44.40;;
11431;SDS011;5772;50.940;6.782;2023-02-22T08:16:54;46.33;;;42.93;;
11431;SDS011;5772;50.940;6.782;2023-02-22T08:19:19;45.83;;;42.63;;
11431;SDS011;5772;50.940;6.782;2023-02-22T08:21:45;47.70;;;43.57;;
11431;SDS011;5772;50.940;6.782;2023-02-22T08:24:10;43.37;;;39.97;;
11431;SDS011;5772;50.940;6.782;2023-02-22T08:26:35;39.03;;;35.97;;
11431;SDS011;5772;50.940;6.782;2023-02-22T08:29:02;38.97;;;36.13;;
11431;SDS011;5772;50.940;6.782;2023-02-22T08:31:27;43.50;;;40.23;;
11431;SDS011;5772;50.940;6.782;2023-02-22T08:33:53;40.67;;;37.87;;
11431;SDS011;5772;50.940;6.782;2023-02-22T08:36:18;36.93;;;34.10;;
11431;SDS011;5772;50.940;6.782;2023-02-22T08:38:43;35.50;;;32.90;;
11431;SDS011;5772;50.940;6.782;2023-02-22T08:41:09;43.97;;;41.20;;
11431;SDS011;5772;50.940;6.782;2023-02-22T08:43:34;50.03;;;47.07;;
11431;SDS011;5772;50.940;6.782;2023-02-22T08:46:01;60.03;;;56.20;;
11431;SDS011;5772;50.940;6.782;2023-02-22T08:48:26;59.83;;;56.43;;
11431;SDS011;5772;50.940;6.782;2023-02-22T08:50:51;61.93;;;58.17;;
11431;SDS011;5772;50.940;6.782;2023-02-22T08:53:17;61.57;;;57.53;;
11431;SDS011;5772;50.940;6.782;2023-02-22T08:55:42;59.90;;;56.60;;
11431;SDS011;5772;50.940;6.782;2023-02-22T08:58:08;59.33;;;56.17;;
11431;SDS011;5772;50.940;6.782;2023-02-22T09:00:34;52.13;;;49.03;;
11431;SDS011;5772;50.940;6.782;2023-02-22T09:03:02;40.00;;;37.47;;
11431;SDS011;5772;50.940;6.782;2023-02-22T09:05:27;35.43;;;32.70;;
11431;SDS011;5772;50.940;6.782;2023-02-22T09:07:53;39.70;;;36.70;;
11431;SDS011;5772;50.940;6.782;2023-02-22T09:10:19;38.53;;;35.27;;
11431;SDS011;5772;50.940;6.782;2023-02-22T09:12:46;40.93;;;38.40;;
11431;SDS011;5772;50.940;6.782;2023-02-22T09:15:14;40.07;;;37.57;;
11431;SDS011;5772;50.940;6.782;2023-02-22T09:17:39;28.93;;;27.03;;
11431;SDS011;5772;50.940;6.782;2023-02-22T09:20:07;27.40;;;25.30;;
11431;SDS011;5772;50.940;6.782;2023-02-22T09:22:33;27.83;;;25.47;;
11431;SDS011;5772;50.940;6.782;2023-02-22T09:24:58;29.47;;;27.27;;
11431;SDS011;5772;50.940;6.782;2023-02-22T09:27:24;26.93;;;24.70;;
11431;SDS011;5772;50.940;6.782;2023-02-22T09:29:49;27.40;;;25.10;;
11431;SDS011;5772;50.940;6.782;2023-02-22T09:32:15;29.10;;;26.53;;
11431;SDS011;5772;50.940;6.782;2023-02-22T09:34:40;26.30;;;24.07;;
11431;SDS011;5772;50.940;6.782;2023-02-22T09:37:07;24.90;;;23.00;;
11431;SDS011;5772;50.940;6.782;2023-02-22T09:39:32;27.33;;;25.33;;
11431;SDS011;5772;50.940;6.782;2023-02-22T09:42:06;32.33;;;29.83;;
11431;SDS011;5772;50.940;6.782;2023-02-22T09:44:34;31.77;;;29.57;;
11431;SDS011;5772;50.940;6.782;2023-02-22T09:47:01;27.30;;;24.80;;
11431;SDS011;5772;50.940;6.782;2023-02-22T09:49:28;26.07;;;24.03;;
11431;SDS011;5772;50.940;6.782;2023-02-22T09:51:59;26.90;;;24.67;;
11431;SDS011;5772;50.940;6.782;2023-02-22T09:54:28;27.30;;;25.30;;
11431;SDS011;5772;50.940;6.782;2023-02-22T09:56:57;28.57;;;26.67;;
11431;SDS011;5772;50.940;6.782;2023-02-22T09:59:26;27.63;;;25.43;;
11431;SDS011;5772;50.940;6.782;2023-02-22T10:01:55;26.40;;;24.70;;
11431;SDS011;5772;50.940;6.782;2023-02-22T10:04:23;26.77;;;24.60;;
11431;SDS011;5772;50.940;6.782;2023-02-22T10:06:57;24.33;;;22.40;;
11431;SDS011;5772;50.940;6.782;2023-02-22T10:09:25;23.03;;;21.37;;
11431;SDS011;5772;50.940;6.782;2023-02-22T10:11:54;23.77;;;21.87;;
11431;SDS011;5772;50.940;6.782;2023-02-22T10:14:28;23.73;;;21.50;;
11431;SDS011;5772;50.940;6.782;2023-02-22T10:17:00;25.23;;;23.10;;
11431;SDS011;5772;50.940;6.782;2023-02-22T10:19:30;24.93;;;23.23;;
11431;SDS011;5772;50.940;6.782;2023-02-22T10:24:51;26.50;;;24.57;;
11431;SDS011;5772;50.940;6.782;2023-02-22T10:27:21;24.30;;;22.67;;
11431;SDS011;5772;50.940;6.782;2023-02-22T10:29:55;22.67;;;20.90;;
11431;SDS011;5772;50.940;6.782;2023-02-22T10:32:25;22.83;;;21.10;;
11431;SDS011;5772;50.940;6.782;2023-02-22T10:34:53;22.70;;;20.60;;
11431;SDS011;5772;50.940;6.782;2023-02-22T10:37:21;21.33;;;19.83;;
11431;SDS011;5772;50.940;6.782;2023-02-22T10:39:49;22.03;;;20.33;;
11431;SDS011;5772;50.940;6.782;2023-02-22T10:42:15;21.23;;;19.47;;
11431;SDS011;5772;50.940;6.782;2023-02-22T10:44:41;20.03;;;18.60;;
11431;SDS011;5772;50.940;6.782;2023-02-22T10:47:07;22.67;;;21.10;;
11431;SDS011;5772;50.940;6.782;2023-02-22T10:49:35;22.40;;;21.00;;
11431;SDS011;5772;50.940;6.782;2023-02-22T10:52:03;23.67;;;21.93;;
11431;SDS011;5772;50.940;6.782;2023-02-22T10:54:29;21.80;;;20.27;;
11431;SDS011;5772;50.940;6.782;2023-02-22T10:56:56;22.15;;;20.55;;
11431;SDS011;5772;50.940;6.782;2023-02-22T10:59:25;24.17;;;22.58;;
11431;SDS011;5772;50.940;6.782;2023-02-22T11:01:53;23.88;;;21.60;;
11431;SDS011;5772;50.940;6.782;2023-02-22T11:04:19;22.88;;;21.15;;
11431;SDS011;5772;50.940;6.782;2023-02-22T11:06:46;22.17;;;20.40;;
11431;SDS011;5772;50.940;6.782;2023-02-22T11:09:14;21.75;;;20.00;;
11431;SDS011;5772;50.940;6.782;2023-02-22T11:11:41;21.30;;;19.80;;
11431;SDS011;5772;50.940;6.782;2023-02-22T11:14:07;21.85;;;20.15;;
11431;SDS011;5772;50.940;6.782;2023-02-22T11:16:34;20.88;;;19.40;;
11431;SDS011;5772;50.940;6.782;2023-02-22T11:19:05;21.23;;;19.70;;
11431;SDS011;5772;50.940;6.782;2023-02-22T11:21:36;20.88;;;19.27;;
11431;SDS011;5772;50.940;6.782;2023-02-22T11:24:03;22.08;;;20.48;;
11431;SDS011;5772;50.940;6.782;2023-02-22T11:26:35;22.13;;;20.52;;
11431;SDS011;5772;50.940;6.782;2023-02-22T11:29:05;20.13;;;18.77;;
11431;SDS011;5772;50.940;6.782;2023-02-22T11:31:34;19.80;;;18.50;;
11431;SDS011;5772;50.940;6.782;2023-02-22T11:34:07;20.02;;;18.38;;
11431;SDS011;5772;50.940;6.782;2023-02-22T11:36:53;20.02;;;18.55;;
11431;SDS011;5772;50.940;6.782;2023-02-22T11:39:22;20.67;;;18.75;;
11431;SDS011;5772;50.940;6.782;2023-02-22T11:41:49;19.38;;;17.75;;
11431;SDS011;5772;50.940;6.782;2023-02-22T11:44:20;19.63;;;18.42;;
11431;SDS011;5772;50.940;6.782;2023-02-22T11:46:47;20.20;;;18.75;;
11431;SDS011;5772;50.940;6.782;2023-02-22T11:49:14;19.17;;;17.17;;
11431;SDS011;5772;50.940;6.782;2023-02-22T11:51:42;19.05;;;17.63;;
11431;SDS011;5772;50.940;6.782;2023-02-22T11:54:18;19.23;;;17.92;;
11431;SDS011;5772;50.940;6.782;2023-02-22T11:56:49;19.75;;;18.38;;
11431;SDS011;5772;50.940;6.782;2023-02-22T11:59:19;19.88;;;18.50;;
11431;SDS011;5772;50.940;6.782;2023-02-22T12:01:50;19.88;;;18.42;;
11431;SDS011;5772;50.940;6.782;2023-02-22T12:04:35;20.23;;;18.80;;
11431;SDS011;5772;50.940;6.782;2023-02-22T12:07:11;19.20;;;17.98;;
11431;SDS011;5772;50.940;6.782;2023-02-22T12:09:42;20.02;;;18.80;;
11431;SDS011;5772;50.940;6.782;2023-02-22T12:12:11;19.60;;;18.45;;
11431;SDS011;5772;50.940;6.782;2023-02-22T12:14:43;21.02;;;19.75;;
11431;SDS011;5772;50.940;6.782;2023-02-22T12:17:17;20.95;;;19.58;;
11431;SDS011;5772;50.940;6.782;2023-02-22T12:19:49;20.67;;;19.30;;
11431;SDS011;5772;50.940;6.782;2023-02-22T12:22:17;20.92;;;19.42;;
11431;SDS011;5772;50.940;6.782;2023-02-22T12:24:46;20.10;;;18.77;;
11431;SDS011;5772;50.940;6.782;2023-02-22T12:27:14;19.65;;;18.35;;
11431;SDS011;5772;50.940;6.782;2023-02-22T12:29:43;19.55;;;18.42;;
11431;SDS011;5772;50.940;6.782;2023-02-22T12:32:12;19.35;;;18.20;;
11431;SDS011;5772;50.940;6.782;2023-02-22T12:34:39;18.63;;;17.60;;
11431;SDS011;5772;50.940;6.782;2023-02-22T12:37:12;20.95;;;19.52;;
11431;SDS011;5772;50.940;6.782;2023-02-22T12:39:52;20.35;;;18.98;;
11431;SDS011;5772;50.940;6.782;2023-02-22T12:42:23;18.85;;;17.70;;
11431;SDS011;5772;50.940;6.782;2023-02-22T12:44:51;17.63;;;16.48;;
11431;SDS011;5772;50.940;6.782;2023-02-22T12:47:20;19.73;;;18.60;;
11431;SDS011;5772;50.940;6.782;2023-02-22T12:49:49;20.70;;;19.40;;
11431;SDS011;5772;50.940;6.782;2023-02-22T12:52:20;20.63;;;19.47;;
11431;SDS011;5772;50.940;6.782;2023-02-22T12:54:58;21.60;;;20.13;;
11431;SDS011;5772;50.940;6.782;2023-02-22T12:57:33;22.70;;;21.60;;
11431;SDS011;5772;50.940;6.782;2023-02-22T13:00:00;22.03;;;20.53;;
11431;SDS011;5772;50.940;6.782;2023-02-22T13:02:29;20.30;;;19.00;;
11431;SDS011;5772;50.940;6.782;2023-02-22T13:04:56;21.00;;;19.40;;
11431;SDS011;5772;50.940;6.782;2023-02-22T13:07:30;21.23;;;19.83;;
11431;SDS011;5772;50.940;6.782;2023-02-22T13:12:54;20.87;;;19.67;;
11431;SDS011;5772;50.940;6.782;2023-02-22T13:15:25;21.00;;;19.50;;
11431;SDS011;5772;50.940;6.782;2023-02-22T13:17:56;20.73;;;19.37;;
11431;SDS011;5772;50.940;6.782;2023-02-22T13:20:27;20.60;;;19.33;;
11431;SDS011;5772;50.940;6.782;2023-02-22T13:22:57;22.43;;;20.87;;
11431;SDS011;5772;50.940;6.782;2023-02-22T13:25:26;23.53;;;21.70;;
11431;SDS011;5772;50.940;6.782;2023-02-22T13:27:57;19.93;;;18.70;;
11431;SDS011;5772;50.940;6.782;2023-02-22T13:30:26;23.87;;;22.17;;
11431;SDS011;5772;50.940;6.782;2023-02-22T13:36:06;20.63;;;19.33;;
11431;SDS011;5772;50.940;6.782;2023-02-22T13:41:38;20.90;;;19.17;;
11431;SDS011;5772;50.940;6.782;2023-02-22T13:44:15;21.50;;;19.93;;
11431;SDS011;5772;50.940;6.782;2023-02-22T13:49:54;21.17;;;19.87;;
11431;SDS011;5772;50.940;6.782;2023-02-22T13:52:25;21.03;;;19.53;;
11431;SDS011;5772;50.940;6.782;2023-02-22T13:54:54;22.70;;;21.30;;
11431;SDS011;5772;50.940;6.782;2023-02-22T13:57:22;20.70;;;19.60;;
11431;SDS011;5772;50.940;6.782;2023-02-22T14:02:59;20.52;;;19.23;;
11431;SDS011;5772;50.940;6.782;2023-02-22T14:05:49;20.33;;;18.75;;
11431;SDS011;5772;50.940;6.782;2023-02-22T14:11:05;20.23;;;18.90;;
11431;SDS011;5772;50.940;6.782;2023-02-22T14:13:31;20.95;;;19.65;;
11431;SDS011;5772;50.940;6.782;2023-02-22T14:16:16;20.55;;;19.38;;
11431;SDS011;5772;50.940;6.782;2023-02-22T14:18:46;19.80;;;18.42;;
11431;SDS011;5772;50.940;6.782;2023-02-22T14:21:13;19.95;;;18.67;;
11431;SDS011;5772;50.940;6.782;2023-02-22T14:23:40;21.17;;;19.98;;
11431;SDS011;5772;50.940;6.782;2023-02-22T14:26:12;19.02;;;17.88;;
11431;SDS011;5772;50.940;6.782;2023-02-22T14:28:40;19.23;;;18.25;;
11431;SDS011;5772;50.940;6.782;2023-02-22T14:31:10;21.50;;;20.20;;
11431;SDS011;5772;50.940;6.782;2023-02-22T14:36:42;20.33;;;18.95;;
11431;SDS011;5772;50.940;6.782;2023-02-22T14:39:16;22.70;;;21.23;;
11431;SDS011;5772;50.940;6.782;2023-02-22T14:41:47;20.88;;;19.67;;
11431;SDS011;5772;50.940;6.782;2023-02-22T14:44:16;21.88;;;20.40;;
11431;SDS011;5772;50.940;6.782;2023-02-22T14:46:47;21.60;;;19.95;;
11431;SDS011;5772;50.940;6.782;2023-02-22T14:49:12;21.98;;;20.60;;
11431;SDS011;5772;50.940;6.782;2023-02-22T14:51:40;22.50;;;21.15;;
11431;SDS011;5772;50.940;6.782;2023-02-22T14:54:08;21.52;;;20.33;;
11431;SDS011;5772;50.940;6.782;2023-02-22T14:56:37;21.30;;;20.00;;
11431;SDS011;5772;50.940;6.782;2023-02-22T14:59:11;23.43;;;21.97;;
11431;SDS011;5772;50.940;6.782;2023-02-22T15:01:39;22.77;;;21.27;;
11431;SDS011;5772;50.940;6.782;2023-02-22T15:04:17;25.27;;;23.20;;